Latest Weather Observations for Sheoaks

IDV60901

Issued at 5:01 pm EDT Friday 27 February 2015 (issued every 10 minutes, with the page automatically refreshed every 10 minutes)

About weather observations | Map of Melbourne area stations | Latest observations for Melbourne area | Other Formats
Station Details ID: 087168 Name: SHEOAKS Lat: -37.91 Lon: 144.13 Height: 236.7 m
Data from the previous 72 hours. | See also: Recent months at Sheoaks
Date/Time
EDT
Tmp

°C
App
Tmp
°C
Dew
Point
°C
Rel
Hum
%
Delta-T

°C
Wind Press
QNH
hPa
Press
MSL
hPa
Rain
since
9 am
mm
Dir
 
Spd
km/h
Gust
km/h
Spd
kts
Gust
kts
27/05:00pm 19.2 17.1 13.6 70 3.2 SE 17 24 9 13 1010.0 1009.3 0.0
27/04:30pm 19.9 17.9 13.8 68 3.5 SSE 17 24 9 13 1010.0 1009.3 0.0
27/04:00pm 20.6 18.2 13.8 65 4.0 SSE 19 28 10 15 1010.0 1009.3 0.0
27/03:30pm 23.6 21.2 8.8 39 8.0 S 11 17 6 9 1010.0 1009.3 0.0
27/03:00pm 24.6 21.9 9.0 37 8.5 SW 13 20 7 11 1010.2 1009.5 0.0
27/02:30pm 24.3 23.0 9.1 38 8.3 SSE 6 11 3 6 1010.3 1009.6 0.0
27/02:00pm 24.2 22.6 10.1 41 7.9 S 9 17 5 9 1010.4 1009.7 0.0
27/01:30pm 23.3 22.3 10.4 44 7.2 SW 6 19 3 10 1010.6 1009.9 0.0
27/01:00pm 22.3 21.4 10.5 47 6.6 SSW 6 11 3 6 1010.9 1010.2 0.0
27/12:30pm 21.3 20.4 10.5 50 6.0 SW 6 9 3 5 1011.2 1010.5 0.0
27/12:00pm 21.3 20.7 11.6 54 5.5 SE 6 11 3 6 1011.9 1011.1 0.0
27/11:30am 20.0 19.3 11.5 58 4.7 S 6 11 3 6 1012.0 1011.2 0.0
27/11:00am 19.2 19.1 12.2 64 3.9 SSE 4 7 2 4 1011.9 1011.1 0.0
27/10:30am 18.2 17.6 11.7 66 3.6 SSW 6 9 3 5 1012.1 1011.3 0.0
27/10:00am 18.1 18.1 12.5 70 3.2 SSW 4 11 2 6 1012.0 1011.2 0.0
27/09:30am 17.3 18.1 13.6 79 2.1 NW 2 6 1 3 1011.6 1010.8 0.0
27/09:00am 14.9 14.6 12.6 86 1.3 N 6 7 3 4 1011.7 1010.9 0.2
27/08:30am 12.8 12.2 11.7 93 0.6 N 6 7 3 4 1011.3 1010.6 0.2
27/08:00am 11.9 11.1 11.1 95 0.4 NW 6 9 3 5 1011.2 1010.5 0.2
27/07:30am 11.5 10.4 10.7 95 0.4 NNW 7 9 4 5 1011.2 1010.5 0.2
27/07:00am 11.9 10.6 11.1 95 0.4 NNW 9 11 5 6 1010.7 1010.0 0.2
27/06:30am 12.7 12.1 11.8 94 0.5 NNW 6 7 3 4 1010.6 1009.9 0.2
27/06:00am 13.2 12.5 12.1 93 0.6 NNW 7 9 4 5 1010.3 1009.6 0.2
27/05:30am 13.8 13.4 12.4 91 0.8 NE 6 7 3 4 1010.3 1009.6 0.2
27/05:00am 14.4 14.6 13.0 91 0.8 NE 4 6 2 3 1010.5 1009.8 0.2
27/04:30am 14.6 14.8 13.0 90 0.9 NE 4 4 2 2 1010.8 1010.1 0.2
27/04:00am 15.0 15.3 13.4 90 0.9 NE 4 4 2 2 1011.0 1010.3 0.2
27/03:30am 14.8 15.5 13.3 91 0.8 NE 2 4 1 2 1011.0 1010.3 0.2
27/03:00am 14.7 15.3 13.2 91 0.8 ENE 2 4 1 2 1011.6 1010.8 0.2
27/02:30am 14.3 14.8 12.9 91 0.8 ENE 2 4 1 2 1012.0 1011.2 0.2
27/02:00am 14.9 15.9 13.1 89 1.0 CALM 0 0 0 0 1011.8 1011.0 0.2
27/01:30am 14.6 14.3 12.6 88 1.1 E 6 7 3 4 1011.6 1010.8 0.2
27/01:00am 15.2 15.4 13.1 87 1.2 E 4 4 2 2 1012.1 1011.3 0.2
27/12:30am 15.6 15.9 13.4 87 1.2 E 4 6 2 3 1012.2 1011.4 0.2
27/12:00am 15.5 15.5 13.7 89 1.0 E 6 7 3 4 1012.2 1011.4 0.2
 
Date/Time
EDT
Tmp

°C
App
Tmp
°C
Dew
Point
°C
Rel
Hum
%
Delta-T

°C
Wind Press
QNH
hPa
Press
MSL
hPa
Rain
since
9 am
mm
Dir
 
Spd
km/h
Gust
km/h
Spd
kts
Gust
kts
26/11:30pm 15.0 16.1 13.4 90 0.9 CALM 0 0 0 0 1012.6 1011.8 0.2
26/11:00pm 14.7 14.8 12.7 88 1.1 ESE 4 6 2 3 1012.7 1012.0 0.2
26/10:30pm 15.5 15.4 13.3 87 1.2 ESE 6 7 3 4 1012.7 1012.0 0.2
26/10:00pm 15.3 15.0 13.2 87 1.2 SE 7 9 4 5 1012.5 1011.7 0.2
26/09:30pm 15.7 15.3 13.0 84 1.5 SE 7 11 4 6 1012.4 1011.6 0.2
26/09:00pm 16.2 15.5 13.1 82 1.7 SE 9 13 5 7 1012.2 1011.4 0.2
26/08:30pm 16.5 15.7 12.8 79 2.1 SE 9 13 5 7 1011.8 1011.0 0.2
26/08:00pm 17.5 15.8 12.6 73 2.8 SE 13 19 7 10 1011.1 1010.4 0.2
26/07:30pm 18.5 16.4 12.5 68 3.4 ESE 15 19 8 10 1010.7 1010.0 0.2
26/07:00pm 19.6 17.6 12.8 65 3.9 ESE 15 20 8 11 1010.5 1009.8 0.2
26/06:30pm 20.6 18.7 13.1 62 4.3 SE 15 20 8 11 1010.2 1009.5 0.2
26/06:00pm 21.4 19.9 14.1 63 4.3 ESE 15 19 8 10 1010.1 1009.4 0.2
26/05:30pm 21.8 20.7 14.4 63 4.4 SE 13 20 7 11 1009.9 1009.2 0.2
26/05:00pm 21.5 19.6 14.2 63 4.3 SE 17 24 9 13 1010.0 1009.3 0.2
26/04:30pm 21.1 19.0 14.7 67 3.8 SE 19 24 10 13 1010.1 1009.4 0.2
26/04:00pm 23.2 22.2 13.4 54 5.7 SSW 11 19 6 10 1009.9 1009.2 0.2
26/03:30pm 23.1 22.5 13.6 55 5.6 WSW 9 17 5 9 1010.2 1009.5 0.2
26/03:00pm 22.8 21.8 13.3 55 5.6 S 11 17 6 9 1010.5 1009.8 0.2
26/02:30pm 22.4 21.4 13.5 57 5.2 SW 11 20 6 11 1010.9 1010.2 0.0
26/02:00pm 21.8 20.6 12.9 57 5.1 SSW 11 19 6 10 1011.2 1010.5 0.0
26/01:30pm 22.0 20.6 12.3 54 5.5 SW 11 24 6 13 1011.2 1010.5 0.0
26/01:00pm 21.8 20.0 13.2 58 5.0 W 15 24 8 13 1011.6 1010.8 0.0
26/12:30pm 21.0 19.6 13.4 62 4.4 SW 13 24 7 13 1011.6 1010.8 0.0
26/12:00pm 20.9 19.4 13.1 61 4.5 WSW 13 20 7 11 1011.8 1011.0 0.0
26/11:30am 20.3 18.6 13.7 66 3.8 WSW 15 24 8 13 1011.9 1011.1 0.0
26/11:00am 19.0 17.7 13.8 72 3.0 WSW 13 22 7 12 1012.0 1011.2 0.0
26/10:30am 17.9 17.2 14.2 79 2.1 WSW 11 17 6 9 1011.8 1011.0 0.0
26/10:00am 17.4 17.5 15.4 88 1.2 WSW 9 13 5 7 1011.7 1010.9 0.0
26/09:30am 16.6 15.8 15.0 90 0.9 W 13 19 7 10 1011.8 1011.0 0.0
26/09:00am 15.9 15.7 14.8 93 0.6 WNW 9 17 5 9 1011.1 1010.4 0.2
26/08:30am 15.6 14.2 14.6 94 0.6 W 15 20 8 11 1011.2 1010.5 0.2
26/08:00am 15.3 13.9 14.5 95 0.5 W 15 20 8 11 1010.9 1010.2 0.2
26/07:30am 15.0 13.9 14.2 95 0.5 W 13 19 7 10 1010.8 1010.1 0.2
26/07:00am 14.7 13.5 14.1 96 0.3 W 13 22 7 12 1010.6 1009.9 0.2
26/06:30am 14.2 12.0 13.4 95 0.4 W 17 22 9 12 1010.4 1009.7 0.0
26/06:00am 14.2 11.9 12.9 92 0.7 W 17 24 9 13 1010.1 1009.4 0.0
26/05:30am 14.6 14.2 13.1 91 0.8 W 7 15 4 8 1009.7 1009.0 0.0
26/05:00am 14.5 14.3 13.0 91 0.8 NW 6 11 3 6 1009.4 1008.7 0.0
26/04:30am 14.5 13.5 13.5 94 0.6 WNW 11 15 6 8 1009.9 1009.2 0.0
26/04:00am 13.8 13.5 12.7 93 0.6 NNW 6 7 3 4 1009.7 1009.0 0.0
26/03:30am 14.4 13.8 13.6 95 0.5 NW 9 15 5 8 1010.3 1009.6 0.0
26/03:00am 12.9 12.4 12.0 94 0.5 NNW 6 7 3 4 1010.1 1009.4 0.0
26/02:30am 13.8 13.5 12.7 93 0.6 NNW 6 7 3 4 1010.3 1009.6 0.0
26/02:00am 14.1 14.2 12.8 92 0.7 NNW 4 6 2 3 1010.5 1009.8 0.0
26/01:30am 14.6 14.5 13.3 92 0.7 NW 6 9 3 5 1010.8 1010.1 0.0
26/01:00am 14.8 15.0 13.2 90 0.9 N 4 6 2 3 1011.1 1010.4 0.0
26/12:30am 15.1 15.4 13.3 89 1.0 NNW 4 6 2 3 1011.1 1010.4 0.0
26/12:00am 15.9 16.4 13.9 88 1.1 WNW 4 7 2 4 1011.1 1010.4 0.0
 
Date/Time
EDT
Tmp

°C
App
Tmp
°C
Dew
Point
°C
Rel
Hum
%
Delta-T

°C
Wind Press
QNH
hPa
Press
MSL
hPa
Rain
since
9 am
mm
Dir
 
Spd
km/h
Gust
km/h
Spd
kts
Gust
kts
25/11:30pm 16.5 16.7 14.3 87 1.3 WNW 6 7 3 4 1011.1 1010.4 0.0
25/11:00pm 16.6 17.5 14.1 85 1.4 W 2 7 1 4 1011.8 1011.0 0.0
25/10:30pm 17.1 17.7 14.2 83 1.7 WSW 4 9 2 5 1012.0 1011.2 0.0
25/10:00pm 17.7 18.2 14.0 79 2.1 WSW 4 7 2 4 1011.7 1010.9 0.0
25/09:30pm 18.2 19.1 13.9 76 2.5 SSW 2 4 1 2 1011.0 1010.3 0.0
25/09:00pm 19.1 19.4 14.4 74 2.8 S 6 7 3 4 1011.0 1010.3 0.0
25/08:30pm 20.0 20.1 14.4 70 3.3 SSE 7 13 4 7 1010.9 1010.2 0.0
25/08:00pm 21.0 21.0 14.2 65 4.0 S 7 13 4 7 1010.9 1010.2 0.0
25/07:30pm 22.6 21.9 14.2 59 5.0 SSE 11 15 6 8 1010.7 1010.0 0.0
25/07:00pm 23.2 21.6 12.8 52 6.0 SE 13 19 7 10 1010.8 1010.1 0.0
25/06:30pm 24.2 23.5 13.1 50 6.5 SE 9 15 5 8 1011.0 1010.3 0.0
25/06:00pm 24.4 23.6 13.0 49 6.7 ESE 9 15 5 8 1010.8 1010.1 0.0
25/05:30pm 24.8 24.2 13.4 49 6.7 SSE 9 15 5 8 1010.9 1010.2 0.0
25/05:00pm 24.4 23.0 13.3 50 6.5 SE 13 22 7 12 1011.2 1010.5 0.0
25/04:30pm 25.4 25.2 12.9 45 7.3 SSE 6 15 3 8 1011.7 1010.9 0.0
25/04:00pm 24.4 22.8 12.7 48 6.8 SE 13 20 7 11 1011.9 1011.1 0.0
25/03:30pm 24.7 24.4 12.6 47 7.0 SE 6 17 3 9 1012.3 1011.5 0.0
25/03:00pm 24.4 23.8 12.4 47 6.9 ESE 7 11 4 6 1013.0 1012.3 0.0
25/02:30pm 23.1 22.6 12.7 52 6.0 SSE 7 15 4 8 1013.3 1012.6 0.0
25/02:00pm 22.3 21.4 12.5 53 5.6 ESE 9 15 5 8 1013.8 1013.1 0.0
25/01:30pm 22.6 21.4 12.8 54 5.7 ESE 11 20 6 11 1014.5 1013.8 0.0
25/01:00pm 22.0 21.0 13.4 58 5.0 SSE 11 17 6 9 1015.0 1014.3 0.0
25/12:30pm 20.7 20.4 13.2 62 4.3 SSE 7 17 4 9 1015.4 1014.7 0.0
25/12:00pm 19.5 19.0 12.8 65 3.8 SE 7 15 4 8 1015.7 1015.0 0.0
25/11:30am 18.9 18.0 12.6 67 3.6 ESE 9 15 5 8 1015.6 1014.9 0.0
25/11:00am 18.0 17.1 12.5 70 3.1 ESE 9 17 5 9 1015.7 1015.0 0.0
25/10:30am 18.1 16.4 12.5 70 3.2 ESE 13 17 7 9 1015.7 1015.0 0.0
25/10:00am 17.4 15.4 12.7 74 2.6 SE 15 20 8 11 1016.1 1015.3 0.0
25/09:30am 16.9 15.0 13.0 78 2.2 SE 15 20 8 11 1016.2 1015.4 0.0
25/09:00am 16.1 14.6 13.2 83 1.6 ESE 13 17 7 9 1016.1 1015.3 0.2
25/08:30am 15.4 14.7 13.1 86 1.3 ESE 9 15 5 8 1016.1 1015.3 0.2
25/08:00am 15.1 14.0 13.0 87 1.2 SE 11 17 6 9 1015.8 1015.1 0.2
25/07:30am 15.0 13.8 12.9 87 1.2 SE 11 19 6 10 1015.5 1014.8 0.2
25/07:00am 15.0 13.1 12.9 87 1.2 SE 15 24 8 13 1015.7 1015.0 0.2
25/06:30am 15.0 13.4 12.9 87 1.2 SE 13 22 7 12 1015.6 1014.9 0.2
25/06:00am 14.9 12.3 13.3 90 0.9 SE 19 30 10 16 1015.5 1014.8 0.2
25/05:30am 14.7 14.2 13.7 94 0.6 SSE 9 15 5 8 1015.5 1014.8 0.2
25/05:00am 14.6 14.1 13.8 95 0.5 SSE 9 20 5 11 1015.6 1014.9 0.2
25/04:30am 14.6 14.0 13.6 94 0.6 SSE 9 15 5 8 1016.0 1015.2 0.2
25/04:00am 14.2 13.8 13.1 93 0.6 S 7 9 4 5 1016.2 1015.4 0.0
25/03:30am 13.9 13.6 12.6 92 0.7 SW 6 9 3 5 1016.5 1015.8 0.0
25/03:00am 14.3 13.9 12.9 91 0.8 SSW 7 11 4 6 1016.7 1016.0 0.0
25/02:30am 13.8 13.2 12.2 90 0.9 SSW 7 9 4 5 1017.1 1016.4 0.0
25/02:00am 13.6 12.9 12.0 90 0.9 SSW 7 11 4 6 1017.5 1016.8 0.0
25/01:30am 13.3 13.0 11.4 88 1.0 SSW 4 7 2 4 1017.7 1017.0 0.0
25/01:00am 13.8 13.0 11.8 88 1.1 S 7 11 4 6 1018.0 1017.3 0.0
25/12:30am 13.6 12.7 11.3 86 1.2 SSW 7 9 4 5 1018.4 1017.7 0.0
25/12:00am 13.7 12.7 11.0 84 1.4 SSW 7 9 4 5 1018.8 1018.1 0.0
 
Date/Time
EDT
Tmp

°C
App
Tmp
°C
Dew
Point
°C
Rel
Hum
%
Delta-T

°C
Wind Press
QNH
hPa
Press
MSL
hPa
Rain
since
9 am
mm
Dir
 
Spd
km/h
Gust
km/h
Spd
kts
Gust
kts
24/11:30pm 13.5 13.3 10.5 82 1.6 SSW 2 4 1 2 1019.5 1018.8 0.0
24/11:00pm 13.4 12.4 10.4 82 1.6 S 6 9 3 5 1019.7 1019.0 0.0
24/10:30pm 13.7 12.6 10.1 79 1.9 SSE 6 9 3 5 1020.1 1019.5 0.0
24/10:00pm 13.6 11.9 9.8 78 2.0 S 9 13 5 7 1020.7 1020.0 0.0
24/09:30pm 13.7 11.5 9.4 75 2.2 S 11 13 6 7 1020.8 1020.1 0.0
24/09:00pm 13.7 11.7 8.7 72 2.5 S 9 13 5 7 1020.8 1020.1 0.0
24/08:30pm 14.3 11.9 8.7 69 2.9 SSE 11 19 6 10 1020.7 1020.0 0.0
24/08:00pm 14.7 11.4 8.2 65 3.3 SSE 15 22 8 12 1020.2 1019.6 0.0
24/07:30pm 15.1 11.6 7.4 60 3.9 S 15 24 8 13 1020.1 1019.5 0.0
24/07:00pm 15.7 11.8 7.2 57 4.2 SSE 17 26 9 14 1020.2 1019.6 0.0
24/06:30pm 16.7 12.5 7.6 55 4.6 SSE 19 28 10 15 1020.2 1019.6 0.0
24/06:00pm 17.7 14.3 7.7 52 5.1 SSE 15 24 8 13 1020.2 1019.6 0.0
24/05:30pm 17.9 14.4 7.3 50 5.4 SSE 15 24 8 13 1020.2 1019.6 0.0

Latest Capital City Observations: Canberra | Sydney | Melbourne | Brisbane | Adelaide | Perth | Hobart | Darwin

Other Formats:

Comma delimited format used in spreadsheet applications
http://www.bom.gov.au/fwo/IDV60901/IDV60901.94863.axf

JavaScript Object Notation format (JSON) in row-major order
http://www.bom.gov.au/fwo/IDV60901/IDV60901.94863.json